Terminal Aerodrome Forecast
Issued by NWS

Current Version | Previous Version | Text Only | Print | Product List | Glossary On
Versions: 1 2 3 4 5 6 7 8 9 10 11 12 13
000
FTUS43 KAPX 282320
TAFTVC
TAF
KTVC 282320Z 2900/2924 01007KT P6SM VCSH FEW060 BKN090
     FM290500 04004KT P6SM BKN070
     FM291100 04004KT P6SM SCT090
     FM291600 03009KT P6SM SCT110=

USA.gov is the U.S. government's official web portal to all federal, state and local government web resources and services.